Time;durP1;ratioP1;P1;durP2;ratioP2;P2;SDS_P1;SDS_P2;PMS_P1;PMS_P2;Temp;Humidity;BMP_temperature;BMP_pressure;BME280_temperature;BME280_humidity;BME280_pressure;Samples;Min_cycle;Max_cycle;Signal;HPM_P1;HPM_P2
2023/01/14 00:01:27;;;;;;;21.73;4.37;;;9.80;99.90;;;;;;5049464;28;20196;-33
2023/01/14 00:03:55;;;;;;;21.17;4.57;;;9.80;99.90;;;;;;5049738;28;20238;-33
2023/01/14 00:06:24;;;;;;;20.17;5.03;;;9.80;99.90;;;;;;5049756;28;20200;-33
2023/01/14 00:08:56;;;;;;;22.57;5.33;;;9.80;99.90;;;;;;5050405;28;20547;-33
2023/01/14 00:14:11;;;;;;;21.47;4.70;;;9.70;99.90;;;;;;5049193;28;20313;-32
2023/01/14 00:16:39;;;;;;;22.87;4.43;;;9.70;99.90;;;;;;5048784;28;20263;-32
2023/01/14 00:19:09;;;;;;;25.57;4.40;;;9.70;99.90;;;;;;5047512;28;20277;-32
2023/01/14 00:21:41;;;;;;;23.63;4.50;;;9.70;99.90;;;;;;5047143;28;20239;-32
2023/01/14 00:24:15;;;;;;;24.63;4.40;;;9.60;99.90;;;;;;5049032;28;20203;-33
2023/01/14 00:26:42;;;;;;;21.13;4.53;;;9.60;99.90;;;;;;5048710;28;20683;-33
2023/01/14 00:29:18;;;;;;;21.43;4.23;;;9.60;99.90;;;;;;5047497;28;20215;-33
2023/01/14 00:31:48;;;;;;;20.50;4.80;;;9.60;99.90;;;;;;5048538;28;20200;-32
2023/01/14 00:34:17;;;;;;;20.00;4.30;;;9.60;99.90;;;;;;5048762;28;20723;-33
2023/01/14 00:36:52;;;;;;;22.23;5.20;;;9.60;99.90;;;;;;5048525;28;20229;-33
2023/01/14 00:39:24;;;;;;;20.50;4.80;;;9.60;99.90;;;;;;5049102;28;20258;-32
2023/01/14 00:41:51;;;;;;;24.97;4.50;;;9.50;99.90;;;;;;5048884;28;20224;-33
2023/01/14 00:44:19;;;;;;;18.50;4.00;;;9.60;99.90;;;;;;5048680;28;20673;-33
2023/01/14 00:46:50;;;;;;;16.83;4.30;;;9.60;99.90;;;;;;5048349;28;20278;-33
2023/01/14 00:49:23;;;;;;;16.03;4.10;;;9.60;99.90;;;;;;5048166;28;20207;-32
2023/01/14 00:51:53;;;;;;;19.87;4.63;;;9.60;99.90;;;;;;5046694;28;20240;-32
2023/01/14 00:54:20;;;;;;;18.87;3.80;;;9.60;99.90;;;;;;5048253;28;20211;-32
2023/01/14 00:56:58;;;;;;;16.67;3.57;;;9.50;99.90;;;;;;5047611;28;20236;-33
2023/01/14 00:59:28;;;;;;;22.60;4.97;;;9.50;99.90;;;;;;5048417;28;20626;-32
2023/01/14 01:01:57;;;;;;;21.73;4.07;;;9.50;99.90;;;;;;5048481;28;20206;-32
2023/01/14 01:04:26;;;;;;;19.00;4.77;;;9.40;99.90;;;;;;5048040;28;20200;-32
2023/01/14 01:06:58;;;;;;;24.03;4.47;;;9.40;99.90;;;;;;5048176;28;20196;-32
2023/01/14 01:09:31;;;;;;;21.40;3.63;;;9.40;99.90;;;;;;5047723;28;20671;-32
2023/01/14 01:11:58;;;;;;;18.87;4.30;;;9.40;99.90;;;;;;5048274;28;20299;-32
2023/01/14 01:14:27;;;;;;;23.50;4.57;;;9.40;99.90;;;;;;5048778;28;20612;-32
2023/01/14 01:16:54;;;;;;;18.80;3.90;;;9.40;99.90;;;;;;5047879;28;20683;-32
2023/01/14 01:19:24;;;;;;;17.00;4.27;;;9.40;99.90;;;;;;5047610;28;20197;-32
2023/01/14 01:21:51;;;;;;;14.50;3.20;;;9.30;99.90;;;;;;5048294;28;20235;-32
2023/01/14 01:24:20;;;;;;;22.27;3.90;;;9.30;99.90;;;;;;5047889;28;20246;-32
2023/01/14 01:26:48;;;;;;;17.00;3.93;;;9.30;99.90;;;;;;5047694;28;20196;-32
2023/01/14 01:29:19;;;;;;;19.20;3.83;;;9.30;99.90;;;;;;5047920;28;20203;-32
2023/01/14 01:31:49;;;;;;;22.03;4.00;;;9.30;99.90;;;;;;5047903;28;20622;-32
2023/01/14 01:34:16;;;;;;;19.23;3.87;;;9.20;99.90;;;;;;5048408;28;20283;-32
2023/01/14 01:36:45;;;;;;;18.67;3.83;;;9.20;99.90;;;;;;5047749;28;20888;-32
2023/01/14 01:39:12;;;;;;;20.13;3.30;;;9.20;99.90;;;;;;5047804;28;20193;-32
2023/01/14 01:41:40;;;;;;;21.00;4.30;;;9.20;99.90;;;;;;5047923;28;20310;-32
2023/01/14 01:44:13;;;;;;;18.00;3.73;;;9.20;99.90;;;;;;5048025;28;20215;-32
2023/01/14 01:46:42;;;;;;;18.97;3.60;;;9.20;99.90;;;;;;5046948;28;20291;-32
2023/01/14 01:49:17;;;;;;;18.37;3.33;;;9.20;99.90;;;;;;5046300;28;20216;-32
2023/01/14 01:51:51;;;;;;;21.07;3.87;;;9.20;99.90;;;;;;5047569;28;21051;-32
2023/01/14 01:54:24;;;;;;;18.50;3.30;;;9.20;99.90;;;;;;5047944;28;20312;-32
2023/01/14 01:56:54;;;;;;;17.60;3.00;;;9.20;99.90;;;;;;5047810;28;20242;-32
2023/01/14 01:59:26;;;;;;;17.23;4.03;;;9.20;99.90;;;;;;5060832;28;20214;-32
2023/01/14 02:01:55;;;;;;;19.10;3.93;;;9.10;99.90;;;;;;5062764;28;20291;-32
2023/01/14 02:04:22;;;;;;;17.13;3.53;;;9.10;99.90;;;;;;5054881;28;20328;-33
2023/01/14 02:06:53;;;;;;;20.33;3.60;;;9.20;99.90;;;;;;5052813;28;20753;-32
2023/01/14 02:09:23;;;;;;;16.17;4.00;;;9.20;99.90;;;;;;5045732;28;20299;-33
2023/01/14 02:12:07;;;;;;;17.90;3.93;;;9.20;99.90;;;;;;5047464;28;20204;-32
2023/01/14 02:14:50;;;;;;;18.60;3.17;;;9.20;99.90;;;;;;5047185;28;20777;-31
2023/01/14 02:17:35;;;;;;;22.10;3.87;;;9.20;99.90;;;;;;5046737;28;20223;-32
2023/01/14 02:20:34;;;;;;;16.10;3.50;;;9.20;99.90;;;;;;5046820;28;20657;-32
2023/01/14 02:23:19;;;;;;;16.33;3.27;;;9.20;99.90;;;;;;5047111;28;20238;-32
2023/01/14 02:26:09;;;;;;;20.67;3.40;;;9.10;99.90;;;;;;5047215;28;20204;-33
2023/01/14 02:29:16;;;;;;;16.87;3.47;;;9.20;99.90;;;;;;5047022;28;20254;-32
2023/01/14 02:31:48;;;;;;;18.33;3.73;;;9.10;99.90;;;;;;5047081;28;20279;-32
2023/01/14 02:34:41;;;;;;;17.40;4.03;;;9.10;99.90;;;;;;5046835;28;20269;-31
2023/01/14 02:37:16;;;;;;;11.80;3.07;;;9.20;99.90;;;;;;5046524;28;20297;-32
2023/01/14 02:40:00;;;;;;;16.07;3.40;;;9.10;99.90;;;;;;5046328;28;20270;-31
2023/01/14 02:45:40;;;;;;;14.83;2.97;;;9.20;99.90;;;;;;5046075;28;20299;-33
2023/01/14 02:48:11;;;;;;;19.40;3.40;;;9.20;99.90;;;;;;5046427;28;20188;-32
2023/01/14 02:50:39;;;;;;;12.17;3.03;;;9.20;99.90;;;;;;5046034;28;20254;-32
2023/01/14 02:53:21;;;;;;;18.07;3.93;;;9.20;99.90;;;;;;5044474;28;20244;-32
2023/01/14 02:55:51;;;;;;;16.60;3.10;;;9.20;99.90;;;;;;5046250;28;20208;-32
2023/01/14 02:58:18;;;;;;;14.33;3.00;;;9.20;99.90;;;;;;5045801;28;20455;-32
2023/01/14 03:01:23;;;;;;;18.27;3.37;;;9.20;99.90;;;;;;5045816;28;20310;-32
2023/01/14 03:04:17;;;;;;;18.20;3.67;;;9.30;99.90;;;;;;5046381;28;20188;-33
2023/01/14 03:07:08;;;;;;;13.63;3.27;;;9.30;99.90;;;;;;5044421;28;20307;-32
2023/01/14 03:10:03;;;;;;;17.17;3.53;;;9.30;99.90;;;;;;5046370;28;20203;-31
2023/01/14 03:12:44;;;;;;;16.93;3.67;;;9.30;99.90;;;;;;5045661;28;20204;-31
2023/01/14 03:15:29;;;;;;;15.73;3.30;;;9.30;99.90;;;;;;5045615;28;20266;-31
2023/01/14 03:18:07;;;;;;;16.33;3.20;;;9.30;99.90;;;;;;5045757;28;20216;-31
2023/01/14 03:20:43;;;;;;;14.30;2.93;;;9.30;99.90;;;;;;5044998;28;20298;-31
2023/01/14 03:23:17;;;;;;;14.63;3.50;;;9.30;99.90;;;;;;5044381;28;20674;-31
2023/01/14 03:25:48;;;;;;;20.37;3.27;;;9.30;99.90;;;;;;5045636;28;20206;-31
2023/01/14 03:28:21;;;;;;;15.63;3.20;;;9.40;99.90;;;;;;5046192;28;20204;-31
2023/01/14 03:30:56;;;;;;;14.63;3.00;;;9.40;99.90;;;;;;5045997;28;20289;-31
2023/01/14 03:33:31;;;;;;;16.30;3.93;;;9.40;99.90;;;;;;5044114;28;20204;-31
2023/01/14 03:36:03;;;;;;;17.00;3.50;;;9.30;99.90;;;;;;5045631;28;20672;-31
2023/01/14 03:38:39;;;;;;;12.90;3.47;;;9.40;99.90;;;;;;5044267;28;20706;-31
2023/01/14 03:41:10;;;;;;;17.13;4.20;;;9.40;99.90;;;;;;5045831;28;20292;-31
2023/01/14 03:43:50;;;;;;;16.17;3.53;;;9.40;99.90;;;;;;5044318;28;20703;-31
2023/01/14 03:46:20;;;;;;;14.80;3.50;;;9.30;99.90;;;;;;5044183;28;20220;-31
2023/01/14 03:48:50;;;;;;;20.47;3.27;;;9.30;99.90;;;;;;5044088;28;20755;-31
2023/01/14 03:51:32;;;;;;;13.27;2.90;;;9.30;99.90;;;;;;5045771;28;20944;-32
2023/01/14 03:54:14;;;;;;;16.00;3.67;;;9.30;99.90;;;;;;5043991;28;20252;-31
2023/01/14 03:57:14;;;;;;;16.77;3.43;;;9.30;99.90;;;;;;5045377;28;20239;-31
2023/01/14 03:59:55;;;;;;;13.37;3.13;;;9.30;99.90;;;;;;5044865;28;20320;-31
2023/01/14 04:02:24;;;;;;;11.57;2.90;;;9.30;99.90;;;;;;5045158;28;20215;-31
2023/01/14 04:04:55;;;;;;;13.30;3.33;;;9.30;99.90;;;;;;5043864;28;20321;-31
2023/01/14 04:07:25;;;;;;;18.10;3.47;;;9.30;99.90;;;;;;5045169;28;20294;-31
2023/01/14 04:09:57;;;;;;;17.07;3.80;;;9.30;99.90;;;;;;5045793;28;20223;-31
2023/01/14 04:12:27;;;;;;;19.97;3.70;;;9.20;99.90;;;;;;5045394;28;20321;-31
2023/01/14 04:17:45;;;;;;;19.10;3.70;;;9.30;99.90;;;;;;5045390;28;20216;-31
2023/01/14 04:20:12;;;;;;;18.33;4.63;;;9.20;99.90;;;;;;5045635;28;20286;-31
2023/01/14 04:22:43;;;;;;;12.00;3.33;;;9.20;99.90;;;;;;5045200;28;20259;-31
2023/01/14 04:25:11;;;;;;;14.03;3.80;;;9.20;99.90;;;;;;5045502;28;20695;-31
2023/01/14 04:27:40;;;;;;;10.33;3.17;;;9.20;99.90;;;;;;5045421;28;20307;-31
2023/01/14 04:30:10;;;;;;;15.97;3.53;;;9.30;99.90;;;;;;5043497;28;20228;-31
2023/01/14 04:32:40;;;;;;;14.13;3.70;;;9.30;99.90;;;;;;5047096;28;20314;-31
2023/01/14 04:35:07;;;;;;;12.07;3.27;;;9.30;99.90;;;;;;5047538;28;20224;-31
2023/01/14 04:37:37;;;;;;;17.20;3.73;;;9.30;99.90;;;;;;5048497;28;20220;-31
2023/01/14 04:40:07;;;;;;;14.87;3.50;;;9.30;99.90;;;;;;5048823;28;20188;-31
2023/01/14 04:42:34;;;;;;;14.20;3.30;;;9.30;99.90;;;;;;5046960;28;20722;-31
2023/01/14 04:45:04;;;;;;;13.77;3.80;;;9.30;99.90;;;;;;5048484;28;20208;-31
2023/01/14 04:47:33;;;;;;;19.53;3.60;;;9.30;99.90;;;;;;5047426;28;20199;-31
2023/01/14 04:52:54;;;;;;;20.00;4.40;;;9.30;99.90;;;;;;5048262;28;20239;-31
2023/01/14 04:55:21;;;;;;;17.53;3.93;;;9.30;99.90;;;;;;5046758;28;20695;-31
2023/01/14 04:57:53;;;;;;;12.30;3.27;;;9.40;99.90;;;;;;5048257;28;20224;-31
2023/01/14 05:00:22;;;;;;;15.27;3.63;;;9.40;99.90;;;;;;5048040;28;20228;-30
2023/01/14 05:02:49;;;;;;;13.70;3.40;;;9.40;99.90;;;;;;5047896;28;20550;-30
2023/01/14 05:05:19;;;;;;;17.80;3.70;;;9.40;99.90;;;;;;5048212;28;20204;-30
2023/01/14 05:07:46;;;;;;;17.20;3.60;;;9.40;99.90;;;;;;5048259;28;20298;-30
2023/01/14 05:10:16;;;;;;;16.87;3.30;;;9.40;99.90;;;;;;5048312;28;20204;-30
2023/01/14 05:12:55;;;;;;;16.77;3.80;;;9.50;99.90;;;;;;5046758;28;20224;-30
2023/01/14 05:15:27;;;;;;;14.60;4.00;;;9.50;99.90;;;;;;5047856;28;20204;-31
2023/01/14 05:17:57;;;;;;;17.33;3.83;;;9.50;99.90;;;;;;5047760;28;20767;-30
2023/01/14 05:20:26;;;;;;;14.90;3.57;;;9.50;99.90;;;;;;5048048;28;20208;-30
2023/01/14 05:23:02;;;;;;;13.33;3.37;;;9.60;99.90;;;;;;5046514;28;20231;-31
2023/01/14 05:25:34;;;;;;;13.73;3.97;;;9.60;99.90;;;;;;5048031;28;20705;-31
2023/01/14 05:28:07;;;;;;;16.97;3.80;;;9.60;99.90;;;;;;5047969;28;20205;-30
2023/01/14 05:30:39;;;;;;;10.60;3.37;;;9.60;99.90;;;;;;5047571;28;20216;-30
2023/01/14 05:33:07;;;;;;;17.50;4.23;;;9.60;99.90;;;;;;5047711;28;20204;-30
2023/01/14 05:35:37;;;;;;;13.53;3.20;;;9.70;99.90;;;;;;5047411;28;20580;-30
2023/01/14 05:38:05;;;;;;;15.07;4.07;;;9.70;99.90;;;;;;5047278;28;20228;-31
2023/01/14 05:40:35;;;;;;;14.73;3.43;;;9.70;99.90;;;;;;5047333;28;20220;-31
2023/01/14 05:46:15;;;;;;;9.70;2.87;;;9.70;99.90;;;;;;5024224;28;20209;-31
2023/01/14 05:48:43;;;;;;;15.10;3.43;;;9.70;99.90;;;;;;5024633;28;20699;-31
2023/01/14 05:51:12;;;;;;;13.07;3.43;;;9.80;99.90;;;;;;5036347;28;20601;-32
2023/01/14 05:53:41;;;;;;;11.67;3.00;;;9.80;99.90;;;;;;5047218;28;20199;-31
2023/01/14 05:56:09;;;;;;;14.70;3.87;;;9.80;99.90;;;;;;5045424;28;20218;-31
2023/01/14 05:58:40;;;;;;;9.33;3.03;;;9.90;99.90;;;;;;5047099;28;20620;-31
2023/01/14 06:06:52;;;;;;;12.30;3.00;;;9.90;99.90;;;;;;5046830;28;20197;-31
2023/01/14 06:09:19;;;;;;;12.43;2.80;;;9.90;99.90;;;;;;5045512;28;20200;-31
2023/01/14 06:14:42;;;;;;;9.23;2.40;;;10.00;99.90;;;;;;5047341;28;20239;-31
2023/01/14 06:17:12;;;;;;;12.93;3.40;;;10.00;99.90;;;;;;5046711;28;20207;-31
2023/01/14 06:19:39;;;;;;;10.07;2.20;;;10.00;99.90;;;;;;5045509;28;20204;-31
2023/01/14 06:22:09;;;;;;;9.70;2.40;;;10.00;99.90;;;;;;5047511;28;20216;-31
2023/01/14 06:24:36;;;;;;;10.87;2.70;;;10.00;99.90;;;;;;5047023;28;20298;-31
2023/01/14 06:27:03;;;;;;;12.60;2.50;;;10.00;99.90;;;;;;5046972;28;20253;-31
2023/01/14 06:29:33;;;;;;;7.93;1.80;;;10.10;99.90;;;;;;5047329;28;20290;-31
2023/01/14 06:32:04;;;;;;;8.00;2.10;;;10.10;99.90;;;;;;5047170;28;20254;-31
2023/01/14 06:34:34;;;;;;;7.60;2.03;;;10.10;99.90;;;;;;5045589;28;20248;-31
2023/01/14 06:37:03;;;;;;;8.30;1.70;;;10.10;99.90;;;;;;5046960;28;20690;-31
2023/01/14 06:39:30;;;;;;;8.73;1.90;;;10.10;99.90;;;;;;5046313;28;20258;-31
2023/01/14 06:41:59;;;;;;;9.67;1.90;;;10.10;99.90;;;;;;5047043;28;20726;-31
2023/01/14 06:44:29;;;;;;;7.07;1.80;;;10.10;99.90;;;;;;5046679;28;20681;-31
2023/01/14 06:46:59;;;;;;;5.83;1.50;;;10.20;99.90;;;;;;5046766;28;20927;-31
2023/01/14 06:49:28;;;;;;;8.80;2.00;;;10.20;99.90;;;;;;5045285;28;20640;-31
2023/01/14 06:51:56;;;;;;;5.90;1.37;;;10.20;99.90;;;;;;5046487;28;20722;-31
2023/01/14 06:54:25;;;;;;;5.63;1.77;;;10.20;99.90;;;;;;5045515;28;20208;-31
2023/01/14 06:56:52;;;;;;;6.90;1.43;;;10.30;99.90;;;;;;5046406;28;20247;-31
2023/01/14 06:59:19;;;;;;;4.00;1.50;;;10.30;99.90;;;;;;5046465;28;20232;-31
2023/01/14 07:01:49;;;;;;;5.60;1.57;;;10.30;99.90;;;;;;5046410;28;20204;-31
2023/01/14 07:04:20;;;;;;;5.00;1.33;;;10.30;99.90;;;;;;5046401;28;20637;-31
2023/01/14 07:06:53;;;;;;;4.13;1.20;;;10.40;99.90;;;;;;5046522;28;20234;-31
2023/01/14 07:09:25;;;;;;;5.50;1.60;;;10.40;99.90;;;;;;5045977;28;20767;-31
2023/01/14 07:11:54;;;;;;;5.17;1.37;;;10.40;99.90;;;;;;5046504;28;20428;-31
2023/01/14 07:14:21;;;;;;;4.47;1.67;;;10.40;99.90;;;;;;5045858;28;20554;-31
2023/01/14 07:16:48;;;;;;;9.23;1.80;;;10.50;99.90;;;;;;5045901;28;20707;-31
2023/01/14 07:19:16;;;;;;;3.00;1.10;;;10.50;99.90;;;;;;5046003;28;20232;-31
2023/01/14 07:21:45;;;;;;;4.17;1.30;;;10.50;99.90;;;;;;5045572;28;20204;-31
2023/01/14 07:24:15;;;;;;;4.07;1.43;;;10.50;99.90;;;;;;5046442;28;20216;-31
2023/01/14 07:26:46;;;;;;;4.53;1.33;;;10.50;99.90;;;;;;5046341;28;20638;-31
2023/01/14 07:29:16;;;;;;;7.50;1.30;;;10.60;99.90;;;;;;5046127;28;20211;-31
2023/01/14 07:31:46;;;;;;;5.27;1.47;;;10.60;99.90;;;;;;5044454;28;20679;-31
2023/01/14 07:34:13;;;;;;;4.03;1.20;;;10.60;99.90;;;;;;5046030;28;20220;-30
2023/01/14 07:36:40;;;;;;;4.50;1.60;;;10.60;99.90;;;;;;5044918;28;20227;-31
2023/01/14 07:39:11;;;;;;;3.90;1.00;;;10.60;99.90;;;;;;5046419;28;20218;-31
2023/01/14 07:41:39;;;;;;;7.13;1.27;;;10.60;99.90;;;;;;5046220;28;20210;-31
2023/01/14 07:44:06;;;;;;;3.77;1.20;;;10.70;99.90;;;;;;5045861;28;20273;-31
2023/01/14 07:46:33;;;;;;;4.13;1.30;;;10.70;99.90;;;;;;5045799;28;20189;-31
2023/01/14 07:49:00;;;;;;;5.87;1.40;;;10.70;99.90;;;;;;5045867;28;20216;-31
2023/01/14 07:51:27;;;;;;;6.13;1.30;;;10.80;99.90;;;;;;5045449;28;20721;-31
2023/01/14 07:53:55;;;;;;;3.73;1.30;;;10.80;99.90;;;;;;5046212;28;20231;-31
2023/01/14 07:56:24;;;;;;;4.07;1.30;;;10.80;99.90;;;;;;5045879;28;20219;-31
2023/01/14 07:58:56;;;;;;;5.83;1.30;;;10.90;99.90;;;;;;5044325;28;20227;-31
2023/01/14 08:01:23;;;;;;;9.23;1.80;;;10.80;99.90;;;;;;5045631;28;20277;-31
2023/01/14 08:03:50;;;;;;;7.53;2.10;;;10.90;99.90;;;;;;5045849;28;20255;-31
2023/01/14 08:06:20;;;;;;;7.10;1.80;;;10.90;99.90;;;;;;5047630;28;20562;-31
2023/01/14 08:08:47;;;;;;;7.77;1.67;;;10.90;99.90;;;;;;5049259;28;20200;-31
2023/01/14 08:11:17;;;;;;;6.90;1.37;;;10.90;99.90;;;;;;5049638;28;20679;-31
2023/01/14 08:13:44;;;;;;;6.57;1.70;;;11.00;99.90;;;;;;5049219;28;20266;-31
2023/01/14 08:16:13;;;;;;;6.37;1.70;;;11.00;99.90;;;;;;5048224;28;20681;-31
2023/01/14 08:18:43;;;;;;;10.17;2.07;;;11.00;99.90;;;;;;5049580;28;20311;-31
2023/01/14 08:21:13;;;;;;;10.07;2.10;;;11.00;99.90;;;;;;5049099;28;20279;-31
2023/01/14 08:23:44;;;;;;;7.30;2.00;;;11.10;99.90;;;;;;5049250;28;20303;-31
2023/01/14 08:26:16;;;;;;;11.53;2.13;;;11.10;99.90;;;;;;5049267;28;20199;-31
2023/01/14 08:28:43;;;;;;;9.53;2.03;;;11.10;99.90;;;;;;5049324;28;20257;-31
2023/01/14 08:31:15;;;;;;;8.77;1.80;;;11.10;99.90;;;;;;5049427;28;20206;-31
2023/01/14 08:33:47;;;;;;;12.40;2.30;;;11.20;99.90;;;;;;5047496;28;20216;-31
2023/01/14 08:36:17;;;;;;;10.87;2.53;;;11.20;99.90;;;;;;5049133;28;20238;-31
2023/01/14 08:38:50;;;;;;;7.80;1.70;;;11.20;99.90;;;;;;5047595;28;20224;-31
2023/01/14 08:41:17;;;;;;;9.40;1.93;;;11.30;99.90;;;;;;5049136;28;20254;-31
2023/01/14 08:43:51;;;;;;;9.67;1.73;;;11.20;99.90;;;;;;5049233;28;20200;-31
2023/01/14 08:46:19;;;;;;;7.30;1.77;;;11.30;99.90;;;;;;5048579;28;20200;-31
2023/01/14 08:48:46;;;;;;;10.17;2.50;;;11.30;99.90;;;;;;5049024;28;20291;-31
2023/01/14 08:51:13;;;;;;;9.43;1.83;;;11.30;99.90;;;;;;5047260;28;20723;-31
2023/01/14 08:53:43;;;;;;;8.97;2.37;;;11.30;99.90;;;;;;5048657;28;20215;-31
2023/01/14 08:56:15;;;;;;;12.10;2.10;;;11.40;99.90;;;;;;5047311;28;20200;-31
2023/01/14 08:58:43;;;;;;;6.20;1.73;;;11.40;99.90;;;;;;5048822;28;20580;-31
2023/01/14 09:01:13;;;;;;;11.27;2.20;;;11.40;99.90;;;;;;5047327;28;20387;-31
2023/01/14 09:03:42;;;;;;;7.40;2.10;;;11.40;99.90;;;;;;5049017;28;20273;-31
2023/01/14 09:06:17;;;;;;;11.47;2.53;;;11.40;99.90;;;;;;5048834;28;20208;-30
2023/01/14 09:17:21;;;;;;;6.57;1.80;;;11.40;99.90;;;;;;5047915;28;20653;-30
2023/01/14 09:19:53;;;;;;;8.87;1.67;;;11.40;99.90;;;;;;5046678;28;20311;-30
2023/01/14 09:22:31;;;;;;;6.13;1.97;;;11.40;99.90;;;;;;5048232;28;20275;-30
2023/01/14 09:25:01;;;;;;;7.40;1.67;;;11.40;99.90;;;;;;5048444;28;20295;-30
2023/01/14 09:27:30;;;;;;;5.37;1.70;;;11.40;99.90;;;;;;5046662;28;20196;-31
2023/01/14 09:29:57;;;;;;;6.73;1.43;;;11.40;99.90;;;;;;5047777;28;20219;-31
2023/01/14 09:32:27;;;;;;;7.43;1.60;;;11.40;99.90;;;;;;5047694;28;20220;-30
2023/01/14 09:34:57;;;;;;;5.90;1.57;;;11.50;99.90;;;;;;5046347;28;20370;-30
2023/01/14 09:37:25;;;;;;;5.47;1.20;;;11.50;99.90;;;;;;5048304;28;20631;-30
2023/01/14 09:39:54;;;;;;;6.07;1.20;;;11.50;99.90;;;;;;5047900;28;20302;-30
2023/01/14 09:42:40;;;;;;;5.67;1.00;;;11.50;99.90;;;;;;5047648;28;20196;-30
2023/01/14 09:45:34;;;;;;;3.50;1.20;;;11.50;99.90;;;;;;5047661;28;20230;-30
2023/01/14 09:48:14;;;;;;;5.83;1.27;;;11.50;99.90;;;;;;5047800;28;20203;-30
2023/01/14 09:51:05;;;;;;;4.17;1.30;;;11.50;99.90;;;;;;5047793;28;20619;-30
2023/01/14 09:53:32;;;;;;;4.00;1.23;;;11.60;99.90;;;;;;5047556;28;20232;-30
2023/01/14 09:56:26;;;;;;;2.13;0.90;;;11.60;99.90;;;;;;5047976;28;20196;-30
2023/01/14 09:59:07;;;;;;;4.10;1.10;;;11.60;99.90;;;;;;5047720;28;20223;-30
2023/01/14 10:01:34;;;;;;;4.37;1.47;;;11.60;99.90;;;;;;5046101;28;20204;-30
2023/01/14 10:04:29;;;;;;;2.07;0.80;;;11.60;99.90;;;;;;5047909;28;20725;-30
2023/01/14 10:07:02;;;;;;;3.30;0.97;;;11.60;99.90;;;;;;5046368;28;20203;-30
2023/01/14 10:09:35;;;;;;;2.00;0.80;;;11.60;99.90;;;;;;5047460;28;20597;-30
2023/01/14 10:12:09;;;;;;;4.00;0.70;;;11.60;99.90;;;;;;5047364;28;20258;-31
2023/01/14 10:14:47;;;;;;;3.13;1.33;;;11.70;99.90;;;;;;5047111;28;20208;-31
2023/01/14 10:17:20;;;;;;;2.83;1.00;;;11.60;99.90;;;;;;5047039;28;20228;-31
2023/01/14 10:19:52;;;;;;;3.00;0.80;;;11.70;99.90;;;;;;5047271;28;20645;-31
2023/01/14 10:22:51;;;;;;;3.80;1.00;;;11.70;99.90;;;;;;5046889;28;20215;-31
2023/01/14 10:25:21;;;;;;;2.67;0.87;;;11.70;99.90;;;;;;5045755;28;20307;-31
2023/01/14 10:27:55;;;;;;;4.37;0.80;;;11.80;99.90;;;;;;5046594;28;20729;-31
2023/01/14 10:30:37;;;;;;;2.83;1.00;;;11.70;99.90;;;;;;5045348;28;20202;-31
2023/01/14 10:33:06;;;;;;;1.80;0.40;;;11.70;99.90;;;;;;5045292;28;20326;-31
2023/01/14 10:35:40;;;;;;;3.93;0.60;;;11.80;99.90;;;;;;5045258;28;20204;-31
2023/01/14 10:38:14;;;;;;;1.90;0.70;;;11.80;99.90;;;;;;5047064;28;20212;-31
2023/01/14 10:40:45;;;;;;;5.20;0.87;;;11.80;99.90;;;;;;5046604;28;20224;-31
2023/01/14 10:43:25;;;;;;;2.27;0.80;;;11.80;99.90;;;;;;5044925;28;20212;-31
2023/01/14 10:45:58;;;;;;;2.53;0.60;;;11.80;99.90;;;;;;5046517;28;20202;-31
2023/01/14 10:48:41;;;;;;;2.83;0.80;;;11.80;99.90;;;;;;5046673;28;20204;-31
2023/01/14 10:51:34;;;;;;;2.00;0.60;;;11.80;99.90;;;;;;5046925;28;20562;-31
2023/01/14 10:54:14;;;;;;;1.57;0.60;;;11.80;99.90;;;;;;5046355;28;20200;-31
2023/01/14 10:57:06;;;;;;;1.97;0.67;;;11.80;99.90;;;;;;5044771;28;20204;-31
2023/01/14 10:59:51;;;;;;;2.23;0.70;;;11.90;99.90;;;;;;5046534;28;20277;-31
2023/01/14 11:02:33;;;;;;;0.70;0.50;;;11.90;99.90;;;;;;5046389;28;20207;-31
2023/01/14 11:05:21;;;;;;;2.07;0.70;;;11.90;99.90;;;;;;5046594;28;20204;-31
2023/01/14 11:07:54;;;;;;;2.87;0.60;;;11.80;99.90;;;;;;5046333;28;20220;-31
2023/01/14 11:10:31;;;;;;;0.80;0.43;;;11.80;99.90;;;;;;5046622;28;20214;-31
2023/01/14 11:13:44;;;;;;;1.63;0.60;;;11.80;99.90;;;;;;5045041;28;20196;-31
2023/01/14 11:16:32;;;;;;;1.33;0.53;;;11.90;99.90;;;;;;5045870;28;20207;-31
2023/01/14 11:19:03;;;;;;;3.27;0.70;;;11.90;99.90;;;;;;5046621;28;20602;-31
2023/01/14 11:21:42;;;;;;;1.03;0.40;;;11.90;99.90;;;;;;5046815;28;20659;-31
2023/01/14 11:24:35;;;;;;;2.27;0.40;;;12.00;99.90;;;;;;5044875;28;20226;-31
2023/01/14 11:27:06;;;;;;;2.07;0.40;;;12.00;99.90;;;;;;5045028;28;20616;-31
2023/01/14 11:29:37;;;;;;;2.93;0.50;;;11.90;99.90;;;;;;5046007;28;20303;-31
2023/01/14 11:32:18;;;;;;;0.60;0.33;;;12.00;99.90;;;;;;5046083;28;20285;-31
2023/01/14 11:35:03;;;;;;;2.67;0.60;;;11.90;99.90;;;;;;5046527;28;20196;-31
2023/01/14 11:37:41;;;;;;;1.17;0.60;;;12.00;99.90;;;;;;5045929;28;20220;-31
2023/01/14 11:41:28;;;;;;;0.57;0.30;;;12.00;99.90;;;;;;5045567;28;20220;-31
2023/01/14 11:43:26;;;;;;;2.40;0.40;;;12.00;99.90;;;;;;5050347;28;20220;-31
2023/01/14 11:46:15;;;;;;;1.27;0.43;;;12.00;99.90;;;;;;5049377;28;20235;-31
2023/01/14 11:48:42;;;;;;;0.97;0.40;;;12.10;99.90;;;;;;5049803;28;20204;-31
2023/01/14 11:51:20;;;;;;;0.47;0.30;;;12.10;99.90;;;;;;5049676;28;20250;-29
2023/01/14 11:53:52;;;;;;;0.60;0.33;;;12.20;99.90;;;;;;5049284;28;20617;-31
2023/01/14 11:56:31;;;;;;;0.90;0.40;;;12.20;99.90;;;;;;5049224;28;20219;-31
2023/01/14 11:59:01;;;;;;;1.63;0.40;;;12.20;99.90;;;;;;5049326;28;20223;-31
2023/01/14 12:01:37;;;;;;;0.40;0.33;;;12.30;99.90;;;;;;5049511;28;20678;-31
2023/01/14 12:04:37;;;;;;;0.40;0.27;;;12.20;99.90;;;;;;5049044;28;20315;-31
2023/01/14 12:07:12;;;;;;;0.90;0.33;;;12.30;99.90;;;;;;5047750;28;20650;-31
2023/01/14 12:09:54;;;;;;;0.57;0.20;;;12.30;99.90;;;;;;5049045;28;20253;-31
2023/01/14 12:18:47;;;;;;;0.90;0.40;;;12.30;99.90;;;;;;5048904;28;20196;-31
2023/01/14 12:21:25;;;;;;;0.67;0.40;;;12.30;99.90;;;;;;5048782;28;20650;-31
2023/01/14 12:24:11;;;;;;;0.97;0.63;;;12.40;99.90;;;;;;5048931;28;20541;-31
2023/01/14 12:26:44;;;;;;;0.73;0.30;;;12.50;99.90;;;;;;5048788;28;20228;-31
2023/01/14 12:29:20;;;;;;;0.70;0.30;;;12.50;99.90;;;;;;5048968;28;20208;-31
2023/01/14 12:31:59;;;;;;;0.40;0.30;;;12.50;99.90;;;;;;5049207;28;20211;-31
2023/01/14 12:34:41;;;;;;;1.10;0.37;;;12.50;99.90;;;;;;5047319;28;20586;-31
2023/01/14 12:37:08;;;;;;;2.37;0.50;;;12.50;99.90;;;;;;5048361;28;20782;-31
2023/01/14 12:45:46;;;;;;;1.23;0.20;;;12.50;99.90;;;;;;5048341;28;20307;-31
2023/01/14 12:48:18;;;;;;;2.03;0.77;;;12.50;99.90;;;;;;5048680;28;20330;-31
2023/01/14 12:51:00;;;;;;;2.50;0.50;;;12.60;99.90;;;;;;5048866;28;20208;-31
2023/01/14 12:53:31;;;;;;;1.43;0.70;;;12.60;99.90;;;;;;5046886;28;20263;-31
2023/01/14 12:56:01;;;;;;;0.93;0.40;;;12.60;99.90;;;;;;5046811;28;20295;-31
2023/01/14 12:58:35;;;;;;;2.43;0.67;;;12.70;99.90;;;;;;5048203;28;20285;-31
2023/01/14 13:01:09;;;;;;;2.47;0.70;;;12.70;99.90;;;;;;5046368;28;20583;-31
2023/01/14 13:03:46;;;;;;;0.87;0.40;;;12.70;99.90;;;;;;5048191;28;20701;-31
2023/01/14 13:06:25;;;;;;;1.00;0.70;;;12.80;99.90;;;;;;5048196;28;20627;-31
2023/01/14 13:08:55;;;;;;;1.87;0.63;;;12.80;99.90;;;;;;5046682;28;20196;-31
2023/01/14 13:11:46;;;;;;;0.97;0.60;;;12.80;99.90;;;;;;5047949;28;20204;-31
2023/01/14 13:14:35;;;;;;;1.53;0.53;;;12.90;99.90;;;;;;5047868;28;20206;-31
2023/01/14 13:17:05;;;;;;;2.40;0.60;;;12.90;99.90;;;;;;5046457;28;20199;-31
2023/01/14 13:19:38;;;;;;;1.63;0.57;;;12.90;99.90;;;;;;5047505;28;20274;-31
2023/01/14 13:22:09;;;;;;;1.00;0.50;;;12.90;99.90;;;;;;5047853;28;20209;-31
2023/01/14 13:25:15;;;;;;;0.93;0.50;;;12.90;99.90;;;;;;5047970;28;20274;-31
2023/01/14 13:27:46;;;;;;;1.23;0.50;;;12.90;99.90;;;;;;5045284;28;20686;-31
2023/01/14 13:30:21;;;;;;;0.30;0.30;;;13.00;99.90;;;;;;5047773;28;20211;-31
2023/01/14 13:33:01;;;;;;;0.83;0.50;;;13.00;99.90;;;;;;5047360;28;20222;-31
2023/01/14 13:35:37;;;;;;;2.30;0.60;;;13.10;99.90;;;;;;5047663;28;20211;-31
2023/01/14 13:38:22;;;;;;;2.43;0.77;;;13.10;99.90;;;;;;5047529;28;20198;-31
2023/01/14 13:41:06;;;;;;;2.10;0.60;;;13.00;99.90;;;;;;5047721;28;20232;-31
2023/01/14 13:43:47;;;;;;;3.63;0.63;;;13.00;99.90;;;;;;5047625;28;20865;-31
2023/01/14 13:46:33;;;;;;;0.93;0.40;;;13.10;99.90;;;;;;5047305;28;20674;-31
2023/01/14 13:49:18;;;;;;;1.27;0.47;;;13.10;99.90;;;;;;5047265;28;20254;-30
2023/01/14 13:51:51;;;;;;;2.00;0.60;;;13.10;99.90;;;;;;5045545;28;20236;-31
2023/01/14 13:54:28;;;;;;;1.57;0.70;;;13.10;99.90;;;;;;5047470;28;20311;-31
2023/01/14 13:57:27;;;;;;;1.60;0.50;;;13.10;99.90;;;;;;5047204;28;20290;-31
2023/01/14 13:59:59;;;;;;;1.10;0.50;;;13.10;99.90;;;;;;5046945;28;20594;-31
2023/01/14 14:02:46;;;;;;;1.90;0.70;;;13.00;99.90;;;;;;5047287;28;20200;-31
2023/01/14 14:05:14;;;;;;;1.47;0.80;;;13.10;99.90;;;;;;5046068;28;20243;-31